createdAt,value
2018-05-11T00:02:52.135Z,11.28
2018-05-11T00:05:54.623Z,11.28
2018-05-11T00:08:57.115Z,11.25
2018-05-11T00:11:59.572Z,11.18
2018-05-11T00:15:02.216Z,11.18
2018-05-11T00:18:04.675Z,11.13
2018-05-11T00:21:07.237Z,11.11
2018-05-11T00:24:09.833Z,11.10
2018-05-11T00:27:12.305Z,11.09
2018-05-11T00:30:14.755Z,11.01
2018-05-11T00:33:17.284Z,10.98
2018-05-11T00:36:19.741Z,10.98
2018-05-11T00:39:22.302Z,10.92
2018-05-11T00:42:24.762Z,10.89
2018-05-11T00:45:27.252Z,10.81
2018-05-11T00:48:29.786Z,10.82
2018-05-11T00:51:32.248Z,10.85
2018-05-11T00:54:34.815Z,10.86
2018-05-11T00:57:37.273Z,10.84
2018-05-11T01:00:39.738Z,10.88
2018-05-11T01:03:42.239Z,10.89
2018-05-11T01:06:44.717Z,10.86
2018-05-11T01:09:47.226Z,10.89
2018-05-11T01:12:49.779Z,10.88
2018-05-11T01:15:52.257Z,10.92
2018-05-11T01:18:54.807Z,10.96
2018-05-11T01:21:57.369Z,10.88
2018-05-11T01:24:59.847Z,10.93
2018-05-11T01:28:02.399Z,10.92
2018-05-11T01:31:04.929Z,10.84
2018-05-11T01:34:07.415Z,10.85
2018-05-11T01:37:09.908Z,10.89
2018-05-11T01:40:12.437Z,10.94
2018-05-11T01:43:14.902Z,10.93
2018-05-11T01:46:17.462Z,10.94
2018-05-11T01:49:20.026Z,10.98
2018-05-11T01:52:22.589Z,11.04
2018-05-11T01:55:25.133Z,11.02
2018-05-11T01:58:27.635Z,11.03
2018-05-11T02:01:30.083Z,11.03
2018-05-11T02:04:32.537Z,11.03
2018-05-11T02:07:34.992Z,11.05
2018-05-11T02:10:37.473Z,11.07
2018-05-11T02:13:39.920Z,11.11
2018-05-11T02:16:42.469Z,11.09
2018-05-11T02:19:44.890Z,11.13
2018-05-11T02:22:47.499Z,11.12
2018-05-11T02:25:50.055Z,11.08
2018-05-11T02:28:52.495Z,11.07
2018-05-11T02:31:54.972Z,11.04
2018-05-11T02:34:57.441Z,11.08
2018-05-11T02:37:59.902Z,11.04
2018-05-11T02:41:02.468Z,11.05
2018-05-11T02:44:05.029Z,11.01
2018-05-11T02:47:07.532Z,11.02
2018-05-11T02:50:09.984Z,11.03
2018-05-11T02:53:12.496Z,11.08
2018-05-11T02:56:14.944Z,11.08
2018-05-11T02:59:17.438Z,11.09
2018-05-11T03:02:19.947Z,11.09
2018-05-11T03:05:22.406Z,11.05
2018-05-11T03:08:24.896Z,11.12
2018-05-11T03:11:27.379Z,11.07
2018-05-11T03:14:29.862Z,11.01
2018-05-11T03:17:32.402Z,11.13
2018-05-11T03:20:34.905Z,11.03
2018-05-11T03:23:37.430Z,11.04
2018-05-11T03:26:39.917Z,11.03
2018-05-11T03:29:42.397Z,11.02
2018-05-11T03:32:44.968Z,10.96
2018-05-11T03:35:47.480Z,10.93
2018-05-11T03:38:49.956Z,10.97
2018-05-11T03:41:52.490Z,10.98
2018-05-11T03:44:54.941Z,10.97
2018-05-11T03:47:57.419Z,10.97
2018-05-11T03:51:00.047Z,10.93
2018-05-11T03:54:02.435Z,10.93
2018-05-11T03:57:04.998Z,10.89
2018-05-11T04:00:07.437Z,10.89
2018-05-11T04:03:21.716Z,10.89
2018-05-11T04:06:35.956Z,10.85
2018-05-11T04:09:39.331Z,10.93
2018-05-11T04:12:41.794Z,10.93
2018-05-11T04:15:44.246Z,10.90
2018-05-11T04:18:46.701Z,10.89
2018-05-11T04:21:49.179Z,10.95
2018-05-11T04:24:51.676Z,10.94
2018-05-11T04:27:54.091Z,10.97
2018-05-11T04:30:56.584Z,11.00
2018-05-11T04:33:59.025Z,10.98
2018-05-11T04:37:01.502Z,10.99
2018-05-11T04:40:03.958Z,11.04
2018-05-11T04:43:06.474Z,11.07
2018-05-11T04:46:08.914Z,11.09
2018-05-11T04:49:11.400Z,11.11
2018-05-11T04:52:13.901Z,11.04
2018-05-11T04:55:16.363Z,10.97
2018-05-11T04:58:18.974Z,11.01
2018-05-11T05:01:21.510Z,11.09
2018-05-11T05:04:23.995Z,11.14
2018-05-11T05:07:26.436Z,11.12
2018-05-11T05:10:28.902Z,11.10
2018-05-11T05:13:31.376Z,11.10
2018-05-11T05:16:33.817Z,11.08
2018-05-11T05:19:36.313Z,11.05
2018-05-11T05:22:38.758Z,11.10
2018-05-11T05:25:41.274Z,11.12
2018-05-11T05:28:43.730Z,11.12
2018-05-11T05:31:46.304Z,11.17
2018-05-11T05:34:48.794Z,11.19
2018-05-11T05:37:51.294Z,11.24
2018-05-11T05:40:53.831Z,11.37
2018-05-11T05:43:56.389Z,11.34
2018-05-11T05:46:58.862Z,11.54
2018-05-11T05:50:01.387Z,11.51
2018-05-11T05:53:03.962Z,11.56
2018-05-11T05:56:06.440Z,11.68
2018-05-11T05:59:08.931Z,11.76
2018-05-11T06:02:11.451Z,11.89
2018-05-11T06:05:13.925Z,11.92
2018-05-11T06:08:16.660Z,11.97
2018-05-11T06:11:19.031Z,11.90
2018-05-11T06:14:21.564Z,11.87
2018-05-11T06:17:24.097Z,11.92
2018-05-11T06:20:26.584Z,11.96
2018-05-11T06:23:29.056Z,12.16
2018-05-11T06:26:31.520Z,12.07
2018-05-11T06:29:34.022Z,12.02
2018-05-11T06:32:36.530Z,12.17
2018-05-11T06:35:38.980Z,12.18
2018-05-11T06:38:41.462Z,12.15
2018-05-11T06:41:43.910Z,12.10
2018-05-11T06:44:46.526Z,12.25
2018-05-11T06:47:48.986Z,12.45
2018-05-11T06:50:51.481Z,12.40
2018-05-11T06:53:53.976Z,12.51
2018-05-11T06:56:56.420Z,12.71
2018-05-11T06:59:59.003Z,12.79
2018-05-11T07:03:01.456Z,13.31
2018-05-11T07:06:03.949Z,13.27
2018-05-11T07:09:06.449Z,13.63
2018-05-11T07:12:08.997Z,13.70
2018-05-11T07:15:11.545Z,14.19
2018-05-11T07:18:14.106Z,14.06
2018-05-11T07:21:16.568Z,14.27
2018-05-11T07:24:19.046Z,14.75
2018-05-11T07:27:21.522Z,14.07
2018-05-11T07:30:24.048Z,14.28
2018-05-11T07:33:26.609Z,14.56
2018-05-11T07:36:29.075Z,14.56
2018-05-11T07:39:31.574Z,14.95
2018-05-11T07:42:34.034Z,15.41
2018-05-11T07:45:36.650Z,15.38
2018-05-11T07:48:39.116Z,15.73
2018-05-11T07:51:41.654Z,15.77
2018-05-11T07:54:44.111Z,15.87
2018-05-11T07:57:46.720Z,16.07
2018-05-11T08:00:49.201Z,16.21
2018-05-11T08:03:51.749Z,16.01
2018-05-11T08:06:54.205Z,15.65
2018-05-11T08:09:56.750Z,15.63
2018-05-11T08:12:59.231Z,15.61
2018-05-11T08:16:01.793Z,16.13
2018-05-11T08:19:04.440Z,16.08
2018-05-11T08:22:06.919Z,15.83
2018-05-11T08:25:09.418Z,15.21
2018-05-11T08:28:11.916Z,15.68
2018-05-11T08:31:14.382Z,15.86
2018-05-11T08:34:17.017Z,15.69
2018-05-11T08:37:19.541Z,15.80
2018-05-11T08:40:22.034Z,15.96
2018-05-11T08:43:24.511Z,16.32
2018-05-11T08:46:26.981Z,16.22
2018-05-11T08:49:29.458Z,16.64
2018-05-11T08:52:31.924Z,16.69
2018-05-11T08:55:34.431Z,16.77
2018-05-11T08:58:36.906Z,16.46
2018-05-11T09:01:39.483Z,16.67
2018-05-11T09:04:42.063Z,16.67
2018-05-11T09:07:44.642Z,16.60
2018-05-11T09:10:47.153Z,16.57
2018-05-11T09:13:49.645Z,16.75
2018-05-11T09:16:52.207Z,16.81
2018-05-11T09:19:54.783Z,16.51
2018-05-11T09:22:57.305Z,16.35
2018-05-11T09:25:59.809Z,16.39
2018-05-11T09:29:02.314Z,17.03
2018-05-11T09:32:04.830Z,17.22
2018-05-11T09:35:07.279Z,17.06
2018-05-11T09:38:09.800Z,16.86
2018-05-11T09:41:12.244Z,16.89
2018-05-11T09:44:14.743Z,16.90
2018-05-11T09:47:18.023Z,16.59
2018-05-11T09:50:20.509Z,16.76
2018-05-11T09:53:23.064Z,16.84
2018-05-11T09:56:25.560Z,16.35
2018-05-11T09:59:28.153Z,16.55
2018-05-11T10:02:30.567Z,16.65
2018-05-11T10:05:33.124Z,16.14
2018-05-11T10:08:35.680Z,16.41
2018-05-11T10:11:38.238Z,16.28
2018-05-11T10:14:40.803Z,16.64
2018-05-11T10:17:43.307Z,16.41
2018-05-11T10:20:45.897Z,16.77
2018-05-11T10:23:48.309Z,16.00
2018-05-11T10:26:50.855Z,16.13
2018-05-11T10:29:53.509Z,16.13
2018-05-11T10:32:56.007Z,16.18
2018-05-11T10:35:58.536Z,16.04
2018-05-11T10:39:00.987Z,16.22
2018-05-11T10:42:03.482Z,16.73
2018-05-11T10:45:05.974Z,16.89
2018-05-11T10:48:08.579Z,17.13
2018-05-11T10:51:11.063Z,17.31
2018-05-11T10:54:13.648Z,17.81
2018-05-11T10:57:16.170Z,18.27
2018-05-11T11:00:18.644Z,17.99
2018-05-11T11:03:21.135Z,17.36
2018-05-11T11:06:23.623Z,17.16
2018-05-11T11:09:26.088Z,17.61
2018-05-11T11:12:28.576Z,17.91
2018-05-11T11:15:31.079Z,18.23
2018-05-11T11:18:33.583Z,18.02
2018-05-11T11:21:36.160Z,17.70
2018-05-11T11:24:38.726Z,17.99
2018-05-11T11:27:41.182Z,17.87
2018-05-11T11:30:43.687Z,17.88
2018-05-11T11:33:46.205Z,18.33
2018-05-11T11:36:48.734Z,18.07
2018-05-11T11:39:51.260Z,18.58
2018-05-11T11:42:53.734Z,18.28
2018-05-11T11:45:56.269Z,18.57
2018-05-11T11:48:58.749Z,18.87
2018-05-11T11:52:01.279Z,18.77
2018-05-11T11:55:03.841Z,17.19
2018-05-11T11:58:06.366Z,18.14
2018-05-11T12:01:08.984Z,18.78
2018-05-11T12:04:11.528Z,18.33
2018-05-11T12:07:14.020Z,18.68
2018-05-11T12:10:16.885Z,19.06
2018-05-11T12:13:19.528Z,19.27
2018-05-11T12:16:22.089Z,19.25
2018-05-11T12:19:24.608Z,19.17
2018-05-11T12:22:27.090Z,19.02
2018-05-11T12:25:29.674Z,18.99
2018-05-11T12:28:32.219Z,19.00
2018-05-11T12:31:34.737Z,18.47
2018-05-11T12:34:37.220Z,18.32
2018-05-11T12:37:39.738Z,17.78
2018-05-11T12:40:42.226Z,17.97
2018-05-11T12:43:44.705Z,18.11
2018-05-11T12:46:47.305Z,18.23
2018-05-11T12:49:49.869Z,18.28
2018-05-11T12:52:52.456Z,18.77
2018-05-11T12:55:54.898Z,19.31
2018-05-11T12:58:57.349Z,19.22
2018-05-11T13:01:59.861Z,19.48
2018-05-11T13:05:02.403Z,19.74
2018-05-11T13:08:04.899Z,19.86
2018-05-11T13:11:07.454Z,19.41
2018-05-11T13:14:10.061Z,19.48
2018-05-11T13:17:12.630Z,19.00
2018-05-11T13:20:15.125Z,19.24
2018-05-11T13:23:17.638Z,19.61
2018-05-11T13:26:20.211Z,18.81
2018-05-11T13:29:22.682Z,19.02
2018-05-11T13:32:25.175Z,18.83
2018-05-11T13:35:27.652Z,18.72
2018-05-11T13:38:30.265Z,18.85
2018-05-11T13:41:32.706Z,18.66
2018-05-11T13:44:35.287Z,18.59
2018-05-11T13:47:37.938Z,18.43
2018-05-11T13:50:40.464Z,18.51
2018-05-11T13:53:43.077Z,18.54
2018-05-11T13:56:45.523Z,18.73
2018-05-11T13:59:48.018Z,18.84
2018-05-11T14:02:50.429Z,19.13
2018-05-11T14:05:53.019Z,19.71
2018-05-11T14:08:55.515Z,19.86
2018-05-11T14:11:58.008Z,19.76
2018-05-11T14:15:00.512Z,19.45
2018-05-11T14:18:03.000Z,19.17
2018-05-11T14:21:05.475Z,19.27
2018-05-11T14:24:08.090Z,19.48
2018-05-11T14:27:10.741Z,20.11
2018-05-11T14:30:13.293Z,20.25
2018-05-11T14:33:15.866Z,20.35
2018-05-11T14:36:18.445Z,20.13
2018-05-11T14:39:21.094Z,19.55
2018-05-11T14:42:23.499Z,20.02
2018-05-11T14:45:26.008Z,20.03
2018-05-11T14:48:28.496Z,19.69
2018-05-11T14:51:30.986Z,19.73
2018-05-11T14:54:33.469Z,19.68
2018-05-11T14:57:35.976Z,19.79
2018-05-11T15:00:38.482Z,19.86
2018-05-11T15:03:40.971Z,20.05
2018-05-11T15:06:43.457Z,20.04
2018-05-11T15:09:46.017Z,20.17
2018-05-11T15:12:48.589Z,20.28
2018-05-11T15:15:51.092Z,19.86
2018-05-11T15:18:53.569Z,19.75
2018-05-11T15:21:56.051Z,19.41
2018-05-11T15:24:58.593Z,19.22
2018-05-11T15:28:01.121Z,19.03
2018-05-11T15:31:03.586Z,18.95
2018-05-11T15:34:06.112Z,19.10
2018-05-11T15:37:08.776Z,18.93
2018-05-11T15:40:11.340Z,19.31
2018-05-11T15:43:13.903Z,19.52
2018-05-11T15:46:16.386Z,19.55
2018-05-11T15:49:18.863Z,19.53
2018-05-11T15:52:21.396Z,19.70
2018-05-11T15:55:23.953Z,19.58
2018-05-11T15:58:26.557Z,19.61
2018-05-11T16:01:29.104Z,19.76
2018-05-11T16:04:31.643Z,19.82
2018-05-11T16:07:34.145Z,19.65
2018-05-11T16:10:36.612Z,19.38
2018-05-11T16:13:39.202Z,19.87
2018-05-11T16:16:41.801Z,19.77
2018-05-11T16:19:44.349Z,19.39
2018-05-11T16:22:46.858Z,19.55
2018-05-11T16:25:49.336Z,19.66
2018-05-11T16:28:51.827Z,19.77
2018-05-11T16:31:54.478Z,19.73
2018-05-11T16:34:56.963Z,19.41
2018-05-11T16:37:59.522Z,19.38
2018-05-11T16:41:01.992Z,19.30
2018-05-11T16:44:04.546Z,19.16
2018-05-11T16:47:07.108Z,19.36
2018-05-11T16:50:09.667Z,19.26
2018-05-11T16:53:12.071Z,19.06
2018-05-11T16:56:14.887Z,19.09
2018-05-11T16:59:17.386Z,19.09
2018-05-11T17:02:19.922Z,18.92
2018-05-11T17:05:22.487Z,18.44
2018-05-11T17:08:25.007Z,18.55
2018-05-11T17:11:27.481Z,18.36
2018-05-11T17:14:30.072Z,18.34
2018-05-11T17:17:32.632Z,18.39
2018-05-11T17:20:35.097Z,18.37
2018-05-11T17:23:37.609Z,18.32
2018-05-11T17:26:40.059Z,18.17
2018-05-11T17:29:42.682Z,18.03
2018-05-11T17:32:45.177Z,18.05
2018-05-11T17:35:47.667Z,18.03
2018-05-11T17:38:50.168Z,17.94
2018-05-11T17:41:52.664Z,17.85
2018-05-11T17:44:55.104Z,17.70
2018-05-11T17:47:57.619Z,17.67
2018-05-11T17:51:00.367Z,17.66
2018-05-11T17:54:04.213Z,17.49
2018-05-11T17:57:06.791Z,17.49
2018-05-11T18:00:09.407Z,17.46
2018-05-11T18:03:11.976Z,17.40
2018-05-11T18:06:14.423Z,17.29
2018-05-11T18:09:16.936Z,17.24
2018-05-11T18:12:19.428Z,17.18
2018-05-11T18:15:21.938Z,17.01
2018-05-11T18:18:24.505Z,16.77
2018-05-11T18:21:27.072Z,16.65
2018-05-11T18:24:29.552Z,16.58
2018-05-11T18:27:32.048Z,16.47
2018-05-11T18:30:34.541Z,16.42
2018-05-11T18:33:37.029Z,16.27
2018-05-11T18:36:39.475Z,16.16
2018-05-11T18:39:41.977Z,16.13
2018-05-11T18:42:44.597Z,16.03
2018-05-11T18:45:47.158Z,15.99
2018-05-11T18:48:49.665Z,15.95
2018-05-11T18:51:52.120Z,15.92
2018-05-11T18:54:54.611Z,15.91
2018-05-11T18:57:57.059Z,15.93
2018-05-11T19:00:59.560Z,15.87
2018-05-11T19:04:02.125Z,15.91
2018-05-11T19:07:04.634Z,15.83
2018-05-11T19:10:07.138Z,15.75
2018-05-11T19:13:09.643Z,15.76
2018-05-11T19:16:12.123Z,15.71
2018-05-11T19:19:14.664Z,15.77
2018-05-11T19:22:17.173Z,15.75
2018-05-11T19:25:19.638Z,15.88
2018-05-11T19:28:22.219Z,15.87
2018-05-11T19:31:24.758Z,15.92
2018-05-11T19:34:27.244Z,15.86
2018-05-11T19:37:29.834Z,15.90
2018-05-11T19:40:32.354Z,15.95
2018-05-11T19:43:34.842Z,15.88
2018-05-11T19:46:37.316Z,15.86
2018-05-11T19:49:39.836Z,15.83
2018-05-11T19:52:42.428Z,15.78
2018-05-11T19:55:45.086Z,15.88
2018-05-11T19:58:47.567Z,15.88
2018-05-11T20:01:50.085Z,15.80
2018-05-11T20:04:52.625Z,15.81
2018-05-11T20:07:55.109Z,15.89
2018-05-11T20:10:57.709Z,15.81
2018-05-11T20:14:00.161Z,15.88
2018-05-11T20:17:02.700Z,15.88
2018-05-11T20:20:05.234Z,15.86
2018-05-11T20:23:08.272Z,15.78
2018-05-11T20:26:10.816Z,15.81
2018-05-11T20:29:13.369Z,15.83
2018-05-11T20:32:15.860Z,15.75
2018-05-11T20:35:18.395Z,15.75
2018-05-11T20:38:20.921Z,15.80
2018-05-11T20:41:23.520Z,15.71
2018-05-11T20:44:26.187Z,15.81
2018-05-11T20:47:28.699Z,15.78
2018-05-11T20:50:31.227Z,15.65
2018-05-11T20:53:33.800Z,15.62
2018-05-11T20:56:36.281Z,15.57
2018-05-11T20:59:38.906Z,15.59
2018-05-11T21:02:41.437Z,15.56
2018-05-11T21:05:43.947Z,15.56
2018-05-11T21:08:46.416Z,15.55
2018-05-11T21:11:48.960Z,15.53
2018-05-11T21:14:51.455Z,15.46
2018-05-11T21:17:53.973Z,15.44
2018-05-11T21:20:56.482Z,15.44
2018-05-11T21:23:58.979Z,15.48
2018-05-11T21:27:01.482Z,15.43
2018-05-11T21:30:03.952Z,15.38
2018-05-11T21:33:06.470Z,15.38
2018-05-11T21:36:08.999Z,15.38
2018-05-11T21:39:11.515Z,15.27
2018-05-11T21:42:14.094Z,15.23
2018-05-11T21:45:16.599Z,15.30
2018-05-11T21:48:19.121Z,15.29
2018-05-11T21:51:21.525Z,15.33
2018-05-11T21:54:24.036Z,15.29
2018-05-11T21:57:26.541Z,15.31
2018-05-11T22:00:29.061Z,15.25
2018-05-11T22:03:31.557Z,15.23
2018-05-11T22:06:34.156Z,15.27
2018-05-11T22:09:36.830Z,15.22
2018-05-11T22:12:39.302Z,15.21
2018-05-11T22:15:41.940Z,15.15
2018-05-11T22:18:44.458Z,15.13
2018-05-11T22:21:46.955Z,15.14
2018-05-11T22:24:49.488Z,15.13
2018-05-11T22:27:51.959Z,15.12
2018-05-11T22:30:57.584Z,15.08
2018-05-11T22:34:00.131Z,15.06
2018-05-11T22:37:02.621Z,15.04
2018-05-11T22:40:06.181Z,15.04
2018-05-11T22:43:09.230Z,15.06
2018-05-11T22:46:11.675Z,15.04
2018-05-11T22:49:15.067Z,15.02
2018-05-11T22:52:17.633Z,14.97
2018-05-11T22:55:21.295Z,14.88
2018-05-11T22:58:23.731Z,14.87
2018-05-11T23:01:26.340Z,14.86
2018-05-11T23:04:29.034Z,14.75
2018-05-11T23:07:31.539Z,14.74
2018-05-11T23:10:34.047Z,14.69
2018-05-11T23:13:36.550Z,14.83
2018-05-11T23:16:38.984Z,14.87
2018-05-11T23:19:41.567Z,14.87
2018-05-11T23:22:44.025Z,14.85
2018-05-11T23:25:46.499Z,14.74
2018-05-11T23:28:49.007Z,14.73
2018-05-11T23:31:51.540Z,14.63
2018-05-11T23:34:54.927Z,14.54
2018-05-11T23:37:57.471Z,14.55
2018-05-11T23:40:59.947Z,14.58
2018-05-11T23:44:02.511Z,14.52
2018-05-11T23:47:05.075Z,14.38
2018-05-11T23:50:07.574Z,14.36
2018-05-11T23:53:10.008Z,14.34
2018-05-11T23:56:12.553Z,14.37
2018-05-11T23:59:15.036Z,14.33
